Time;durP1;ratioP1;P1;durP2;ratioP2;P2;SDS_P1;SDS_P2;PMS_P1;PMS_P2;Temp;Humidity;BMP_temperature;BMP_pressure;BME280_temperature;BME280_humidity;BME280_pressure;Samples;Min_cycle;Max_cycle;Signal;HPM_P1;HPM_P2
2023/04/17 00:00:05;;;;;;;184.23;70.07;;;9.70;99.90;;;;;;5090994;28;20226;-51
2023/04/17 00:02:38;;;;;;;208.00;58.97;;;9.70;99.90;;;;;;5103661;28;20200;-51
2023/04/17 00:05:09;;;;;;;219.77;64.03;;;9.70;99.90;;;;;;5102768;28;20635;-51
2023/04/17 00:07:38;;;;;;;586.83;106.00;;;9.70;99.90;;;;;;5110601;28;20281;-50
2023/04/17 00:10:08;;;;;;;429.57;92.63;;;9.70;99.90;;;;;;5110718;28;20196;-50
2023/04/17 00:12:36;;;;;;;1999.90;381.60;;;9.70;99.90;;;;;;5104124;27;20596;-51
2023/04/17 00:15:05;;;;;;;824.47;150.90;;;9.70;99.90;;;;;;5104399;28;20290;-50
2023/04/17 00:17:33;;;;;;;1195.20;194.43;;;9.70;99.90;;;;;;5096124;28;20221;-51
2023/04/17 00:20:01;;;;;;;452.80;121.80;;;9.70;99.90;;;;;;5110663;28;20218;-51
2023/04/17 00:22:30;;;;;;;268.60;92.40;;;9.70;99.90;;;;;;5095905;28;20230;-51
2023/04/17 00:24:58;;;;;;;631.37;122.07;;;9.70;99.90;;;;;;5110679;28;20290;-50
2023/04/17 00:27:26;;;;;;;386.47;86.90;;;9.70;99.90;;;;;;5110056;28;20299;-51
2023/04/17 00:29:54;;;;;;;281.57;81.40;;;9.70;99.90;;;;;;5110566;28;20227;-50
2023/04/17 00:32:22;;;;;;;469.80;86.40;;;9.70;99.90;;;;;;5110390;28;20210;-51
2023/04/17 00:34:50;;;;;;;820.10;124.40;;;9.60;99.90;;;;;;5100994;28;20308;-51
2023/04/17 00:37:21;;;;;;;270.47;91.07;;;9.60;99.90;;;;;;5107619;28;20663;-50
2023/04/17 00:39:50;;;;;;;818.93;151.07;;;9.70;99.90;;;;;;5110480;28;20287;-50
2023/04/17 00:42:18;;;;;;;1676.37;254.73;;;9.70;99.90;;;;;;5099836;28;20236;-50
2023/04/17 00:44:46;;;;;;;821.27;139.10;;;9.70;99.90;;;;;;5082110;28;20247;-51
2023/04/17 00:47:14;;;;;;;1999.90;436.27;;;9.60;99.90;;;;;;5109909;28;20211;-51
2023/04/17 00:49:42;;;;;;;304.00;87.33;;;9.60;99.90;;;;;;5107424;28;20298;-51
2023/04/17 00:52:10;;;;;;;332.03;95.77;;;9.70;99.90;;;;;;5104108;28;20294;-52
2023/04/17 00:54:38;;;;;;;142.77;55.63;;;9.70;99.90;;;;;;5102318;28;20249;-52
2023/04/17 00:57:08;;;;;;;752.63;119.43;;;9.60;99.90;;;;;;5087863;28;20208;-50
2023/04/17 00:59:37;;;;;;;1999.90;479.77;;;9.60;99.90;;;;;;5093141;28;20294;-50
2023/04/17 01:02:05;;;;;;;1476.60;213.30;;;9.70;99.90;;;;;;5089107;28;20228;-51
2023/04/17 01:04:33;;;;;;;1494.50;198.57;;;9.60;99.90;;;;;;5101979;28;20226;-51
2023/04/17 01:07:02;;;;;;;1999.90;337.53;;;9.60;99.90;;;;;;5109606;28;20208;-51
2023/04/17 01:09:31;;;;;;;1168.17;198.30;;;9.50;99.90;;;;;;5100760;28;20336;-51
2023/04/17 01:12:18;;;;;;;726.97;138.03;;;9.50;99.90;;;;;;5104882;28;20287;-51
2023/04/17 01:14:47;;;;;;;1886.30;318.00;;;9.50;99.90;;;;;;5109204;28;20238;-51
2023/04/17 01:17:17;;;;;;;874.97;146.53;;;9.50;99.90;;;;;;5108452;28;20221;-51
2023/04/17 01:19:46;;;;;;;341.70;80.17;;;9.50;99.90;;;;;;5109384;28;20203;-50
2023/04/17 01:22:15;;;;;;;549.63;106.43;;;9.50;99.90;;;;;;5109308;28;20299;-50
2023/04/17 01:24:44;;;;;;;268.70;59.53;;;9.50;99.90;;;;;;5109073;28;20692;-52
2023/04/17 01:27:13;;;;;;;1712.30;219.10;;;9.50;99.90;;;;;;5108898;28;20751;-51
2023/04/17 01:29:42;;;;;;;170.87;62.30;;;9.50;99.90;;;;;;5109540;28;20262;-51
2023/04/17 01:32:11;;;;;;;552.47;99.90;;;9.50;99.90;;;;;;5094633;28;20698;-51
2023/04/17 01:34:39;;;;;;;1169.97;192.67;;;9.50;99.90;;;;;;5109175;28;20254;-51
2023/04/17 01:37:07;;;;;;;688.23;124.27;;;9.50;99.90;;;;;;5108986;28;20987;-51
2023/04/17 01:39:35;;;;;;;373.90;91.10;;;9.60;99.90;;;;;;5109103;28;20208;-50
2023/04/17 01:42:05;;;;;;;351.53;85.33;;;9.50;99.90;;;;;;5109005;28;20234;-51
2023/04/17 01:44:36;;;;;;;511.53;114.67;;;9.60;99.90;;;;;;5101838;28;20264;-51
2023/04/17 01:47:04;;;;;;;235.57;66.73;;;9.60;99.90;;;;;;5105251;28;20260;-51
2023/04/17 01:49:32;;;;;;;701.00;114.17;;;9.50;99.90;;;;;;5109190;28;20298;-51
2023/04/17 01:52:00;;;;;;;519.50;129.20;;;9.50;99.90;;;;;;5108802;28;20203;-51
2023/04/17 01:54:28;;;;;;;989.07;163.33;;;9.50;99.90;;;;;;5095968;28;20275;-51
2023/04/17 01:56:56;;;;;;;1286.20;188.00;;;9.50;99.90;;;;;;5109017;28;20242;-51
2023/04/17 01:59:26;;;;;;;1679.80;269.30;;;9.50;99.90;;;;;;5109011;28;20673;-51
2023/04/17 02:01:54;;;;;;;854.97;161.47;;;9.50;99.90;;;;;;5109093;28;20310;-51
2023/04/17 02:04:23;;;;;;;747.97;136.70;;;9.50;99.90;;;;;;5108660;28;20723;-50
2023/04/17 02:06:51;;;;;;;193.47;80.70;;;9.50;99.90;;;;;;5109101;28;20681;-50
2023/04/17 02:09:19;;;;;;;1850.23;223.20;;;9.50;99.90;;;;;;5094403;28;20215;-50
2023/04/17 02:11:47;;;;;;;541.10;151.17;;;9.40;99.90;;;;;;5109367;28;20200;-50
2023/04/17 02:14:17;;;;;;;509.63;91.43;;;9.40;99.90;;;;;;5099233;28;20764;-51
2023/04/17 02:16:47;;;;;;;403.80;97.03;;;9.40;99.90;;;;;;5108771;28;20305;-51
2023/04/17 02:19:15;;;;;;;342.30;81.00;;;9.50;99.90;;;;;;5106219;28;20203;-51
2023/04/17 02:21:43;;;;;;;1834.43;272.90;;;9.40;99.90;;;;;;5108993;28;20235;-51
2023/04/17 02:24:11;;;;;;;1960.47;345.40;;;9.40;99.90;;;;;;5108792;28;20306;-51
2023/04/17 02:26:39;;;;;;;304.73;101.87;;;9.50;99.90;;;;;;5108768;28;20207;-50
2023/04/17 02:29:07;;;;;;;140.67;65.20;;;9.50;99.90;;;;;;5111028;28;20216;-50
2023/04/17 02:31:35;;;;;;;553.03;96.27;;;9.40;99.90;;;;;;5112533;27;20207;-51
2023/04/17 02:34:04;;;;;;;431.40;87.07;;;9.40;99.90;;;;;;5112719;28;20256;-50
2023/04/17 02:36:32;;;;;;;650.07;124.70;;;9.40;99.90;;;;;;5112414;28;20211;-51
2023/04/17 02:39:00;;;;;;;324.13;71.00;;;9.40;99.90;;;;;;5112730;28;20294;-51
2023/04/17 02:41:28;;;;;;;346.50;91.43;;;9.40;99.90;;;;;;5098155;28;20302;-51
2023/04/17 02:43:58;;;;;;;75.07;50.30;;;9.40;99.90;;;;;;5104591;28;21041;-50
2023/04/17 02:46:26;;;;;;;92.77;60.87;;;9.40;99.90;;;;;;5112615;28;20297;-50
2023/04/17 02:48:54;;;;;;;988.13;164.53;;;9.40;99.90;;;;;;5083956;28;20211;-50
2023/04/17 02:51:23;;;;;;;1666.30;222.67;;;9.40;99.90;;;;;;5105232;28;20206;-51
2023/04/17 02:53:51;;;;;;;230.20;56.40;;;9.40;99.90;;;;;;5110710;28;20318;-51
2023/04/17 02:56:19;;;;;;;1999.90;293.40;;;9.40;99.90;;;;;;5112044;28;20210;-50
2023/04/17 02:58:47;;;;;;;633.47;153.60;;;9.30;99.90;;;;;;5112076;28;20634;-51
2023/04/17 03:01:15;;;;;;;535.30;96.37;;;9.30;99.90;;;;;;5101656;28;20881;-51
2023/04/17 03:03:43;;;;;;;147.40;70.37;;;9.30;99.90;;;;;;5111804;28;20223;-51
2023/04/17 03:06:12;;;;;;;743.23;134.93;;;9.30;99.90;;;;;;5111990;28;20230;-51
2023/04/17 03:08:42;;;;;;;809.63;129.17;;;9.30;99.90;;;;;;5099956;27;20623;-51
2023/04/17 03:11:10;;;;;;;1999.90;667.23;;;9.30;99.90;;;;;;5111813;28;20207;-51
2023/04/17 03:13:38;;;;;;;1417.60;221.80;;;9.40;99.90;;;;;;5111780;28;20280;-51
2023/04/17 03:16:07;;;;;;;1999.90;321.50;;;9.30;99.90;;;;;;5106935;28;20312;-50
2023/04/17 03:18:38;;;;;;;590.47;117.33;;;9.30;99.90;;;;;;5103740;28;20207;-51
2023/04/17 03:21:06;;;;;;;672.93;107.80;;;9.30;99.90;;;;;;5111628;28;20208;-50
2023/04/17 03:23:35;;;;;;;303.50;74.17;;;9.30;99.90;;;;;;5103867;27;20220;-51
2023/04/17 03:26:04;;;;;;;269.37;70.10;;;9.30;99.90;;;;;;5105483;28;20199;-51
2023/04/17 03:28:32;;;;;;;451.20;90.87;;;9.30;99.90;;;;;;5107420;28;20252;-51
2023/04/17 03:31:00;;;;;;;848.40;141.40;;;9.30;99.90;;;;;;5104293;28;20239;-50
2023/04/17 03:33:28;;;;;;;428.63;107.17;;;9.30;99.90;;;;;;5111272;28;20227;-50
2023/04/17 03:35:56;;;;;;;1364.90;217.57;;;9.30;99.90;;;;;;5111116;28;20730;-50
2023/04/17 03:38:24;;;;;;;440.57;111.83;;;9.40;99.90;;;;;;5107603;28;20685;-51
2023/04/17 03:40:52;;;;;;;404.63;97.80;;;9.40;99.90;;;;;;5100225;28;20297;-51
2023/04/17 03:43:21;;;;;;;984.27;146.93;;;9.30;99.90;;;;;;5096533;28;20262;-51
2023/04/17 03:45:49;;;;;;;1459.27;241.00;;;9.40;99.90;;;;;;5111275;28;20239;-51
2023/04/17 03:48:17;;;;;;;517.23;116.80;;;9.30;99.90;;;;;;5111148;28;20702;-51
2023/04/17 03:50:45;;;;;;;728.10;144.87;;;9.30;99.90;;;;;;5103030;28;20732;-51
2023/04/17 03:53:13;;;;;;;444.07;81.00;;;9.30;99.90;;;;;;5110285;28;20286;-50
2023/04/17 03:55:41;;;;;;;1999.90;472.03;;;9.30;99.90;;;;;;5110607;28;20310;-51
2023/04/17 03:58:09;;;;;;;383.67;87.90;;;9.30;99.90;;;;;;5103906;28;20297;-51
2023/04/17 04:00:39;;;;;;;1303.13;174.47;;;9.30;99.90;;;;;;5109463;28;20289;-51
2023/04/17 04:03:07;;;;;;;1170.00;201.47;;;9.30;99.90;;;;;;5110561;28;20302;-51
2023/04/17 04:05:35;;;;;;;1999.90;387.03;;;9.30;99.90;;;;;;5107358;28;20212;-51
2023/04/17 04:08:03;;;;;;;1999.90;523.20;;;9.20;99.90;;;;;;5100186;28;20203;-51
2023/04/17 04:10:32;;;;;;;1986.83;341.77;;;9.20;99.90;;;;;;5106670;28;20302;-51
2023/04/17 04:13:00;;;;;;;1167.23;163.43;;;9.20;99.90;;;;;;5110552;28;20247;-51
2023/04/17 04:15:28;;;;;;;1999.90;464.47;;;9.20;99.90;;;;;;5098697;28;20220;-51
2023/04/17 04:17:57;;;;;;;1010.50;170.30;;;9.10;99.90;;;;;;5110348;28;20290;-51
2023/04/17 04:20:25;;;;;;;883.83;152.87;;;9.10;99.90;;;;;;5101313;28;20689;-51
2023/04/17 04:22:56;;;;;;;533.87;98.93;;;9.10;99.90;;;;;;5110173;28;20253;-51
2023/04/17 04:25:24;;;;;;;831.13;138.30;;;9.20;99.90;;;;;;5110595;28;20208;-51
2023/04/17 04:27:52;;;;;;;803.00;133.43;;;9.10;99.90;;;;;;5099699;28;20731;-51
2023/04/17 04:30:20;;;;;;;389.73;82.57;;;9.20;99.90;;;;;;5110171;28;20295;-51
2023/04/17 04:32:50;;;;;;;191.57;69.67;;;9.20;99.90;;;;;;5106500;28;20771;-52
2023/04/17 04:35:19;;;;;;;148.87;55.47;;;9.20;99.90;;;;;;5104372;28;20227;-51
2023/04/17 04:37:47;;;;;;;372.20;108.57;;;9.20;99.90;;;;;;5102728;28;20239;-51
2023/04/17 04:40:15;;;;;;;933.73;149.17;;;9.20;99.90;;;;;;5104801;28;20810;-50
2023/04/17 04:42:48;;;;;;;1349.77;196.97;;;9.20;99.90;;;;;;5109713;28;20981;-50
2023/04/17 04:45:17;;;;;;;545.70;96.63;;;9.10;99.90;;;;;;5110113;28;20206;-51
2023/04/17 04:47:45;;;;;;;1118.27;191.50;;;9.20;99.90;;;;;;5099527;28;20208;-52
2023/04/17 04:50:13;;;;;;;251.43;89.57;;;9.10;99.90;;;;;;5107150;28;20208;-51
2023/04/17 04:52:42;;;;;;;794.17;141.57;;;9.10;99.90;;;;;;5109918;28;20206;-50
2023/04/17 04:55:11;;;;;;;644.00;144.97;;;9.20;99.90;;;;;;5109616;28;20215;-51
2023/04/17 04:57:39;;;;;;;590.60;113.10;;;9.20;99.90;;;;;;5109783;28;20665;-51
2023/04/17 05:00:08;;;;;;;69.07;46.70;;;9.20;99.90;;;;;;5109656;28;20239;-51
2023/04/17 05:02:36;;;;;;;697.47;109.20;;;9.20;99.90;;;;;;5109730;28;20274;-50
2023/04/17 05:05:08;;;;;;;819.30;141.93;;;9.20;99.90;;;;;;5096419;28;20216;-51
2023/04/17 05:07:36;;;;;;;243.53;69.93;;;9.20;99.90;;;;;;5109365;28;20279;-51
2023/04/17 05:10:06;;;;;;;1827.40;256.90;;;9.20;99.90;;;;;;5109556;28;20264;-51
2023/04/17 05:12:34;;;;;;;1816.80;207.07;;;9.10;99.90;;;;;;5104605;28;20297;-51
2023/04/17 05:15:03;;;;;;;198.53;82.93;;;9.20;99.90;;;;;;5100815;28;20241;-51
2023/04/17 05:17:30;;;;;;;325.17;75.07;;;9.10;99.90;;;;;;5105209;28;20294;-51
2023/04/17 05:20:00;;;;;;;1630.60;246.63;;;9.20;99.90;;;;;;5109541;28;20227;-51
2023/04/17 05:22:28;;;;;;;1999.90;401.27;;;9.20;99.90;;;;;;5109081;28;20239;-51
2023/04/17 05:24:56;;;;;;;1999.90;495.80;;;9.00;99.90;;;;;;5109491;28;20227;-51
2023/04/17 05:27:25;;;;;;;1029.47;213.90;;;9.00;99.90;;;;;;5109346;28;20293;-50
2023/04/17 05:29:53;;;;;;;1999.90;376.60;;;9.10;99.90;;;;;;5094962;28;20265;-50
2023/04/17 05:32:21;;;;;;;339.97;88.00;;;9.10;99.90;;;;;;5109350;28;20798;-51
2023/04/17 05:34:49;;;;;;;531.63;129.03;;;9.10;99.90;;;;;;5098179;28;20236;-51
2023/04/17 05:37:17;;;;;;;616.43;109.07;;;9.10;99.90;;;;;;5109226;28;20318;-50
2023/04/17 05:39:45;;;;;;;1999.90;461.73;;;9.10;99.90;;;;;;5105192;28;20247;-51
2023/04/17 05:42:13;;;;;;;1999.90;299.70;;;9.10;99.90;;;;;;5109049;28;20590;-51
2023/04/17 05:44:42;;;;;;;1869.77;271.93;;;9.10;99.90;;;;;;5108970;28;20604;-50
2023/04/17 05:47:10;;;;;;;1999.90;373.93;;;9.20;99.90;;;;;;5103216;28;20310;-51
2023/04/17 05:49:39;;;;;;;1999.90;450.83;;;9.10;99.90;;;;;;5101361;28;20209;-51
2023/04/17 05:52:07;;;;;;;1999.90;335.67;;;9.10;99.90;;;;;;5108994;28;20291;-51
2023/04/17 05:54:35;;;;;;;387.33;117.43;;;9.10;99.90;;;;;;5105947;28;20356;-51
2023/04/17 05:57:03;;;;;;;1999.90;345.93;;;9.20;99.90;;;;;;5105832;28;20219;-53
2023/04/17 05:59:31;;;;;;;1058.03;175.80;;;9.20;99.90;;;;;;5101718;28;20200;-52
2023/04/17 06:02:00;;;;;;;795.57;140.70;;;9.30;99.90;;;;;;5089542;28;20691;-51
2023/04/17 06:04:29;;;;;;;1999.90;373.37;;;9.30;99.90;;;;;;5096155;28;20283;-51
2023/04/17 06:06:57;;;;;;;1999.90;777.90;;;9.50;99.90;;;;;;5107380;28;20204;-50
2023/04/17 06:09:26;;;;;;;1999.90;308.57;;;9.60;99.90;;;;;;5104942;28;20294;-51
2023/04/17 06:11:54;;;;;;;1999.90;331.33;;;9.60;99.90;;;;;;5110061;28;20207;-50
2023/04/17 06:14:22;;;;;;;1999.90;608.93;;;9.60;99.90;;;;;;5112749;28;20254;-50
2023/04/17 06:16:50;;;;;;;1999.90;312.07;;;9.60;99.90;;;;;;5112913;28;20227;-51
2023/04/17 06:19:21;;;;;;;1999.90;426.67;;;9.70;99.90;;;;;;5112434;28;20600;-51
2023/04/17 06:21:49;;;;;;;1028.77;174.07;;;9.70;99.90;;;;;;5090002;28;20222;-51
2023/04/17 06:24:17;;;;;;;1999.90;439.17;;;9.70;99.90;;;;;;5111728;28;20401;-51
2023/04/17 06:26:45;;;;;;;1999.90;401.07;;;9.80;99.90;;;;;;5100076;28;20314;-51
2023/04/17 06:29:14;;;;;;;1374.27;234.17;;;9.80;99.90;;;;;;5112538;28;20253;-51
2023/04/17 06:31:42;;;;;;;1999.90;520.40;;;9.80;99.90;;;;;;5098600;28;20641;-51
2023/04/17 06:34:10;;;;;;;1999.90;317.03;;;9.80;99.90;;;;;;5112723;28;20232;-50
2023/04/17 06:36:40;;;;;;;1999.90;444.43;;;9.70;99.90;;;;;;5112210;28;20748;-51
2023/04/17 06:39:08;;;;;;;1999.90;690.30;;;9.80;99.90;;;;;;5089142;28;20240;-50
2023/04/17 06:41:36;;;;;;;1018.90;201.13;;;9.90;99.90;;;;;;5096589;28;20299;-50
2023/04/17 06:44:04;;;;;;;1195.17;230.27;;;9.80;99.90;;;;;;5112117;28;20292;-51
2023/04/17 06:46:32;;;;;;;1299.23;255.37;;;9.80;99.90;;;;;;5112328;28;20250;-51
2023/04/17 06:49:01;;;;;;;1999.90;417.27;;;9.80;99.90;;;;;;5107872;28;20223;-50
2023/04/17 06:51:29;;;;;;;1999.90;425.30;;;9.80;99.90;;;;;;5098432;28;20263;-50
2023/04/17 06:53:59;;;;;;;1826.80;272.67;;;9.80;99.90;;;;;;5099316;28;20221;-51
2023/04/17 06:56:27;;;;;;;1999.90;514.73;;;9.70;99.90;;;;;;5104954;28;20318;-51
2023/04/17 06:58:56;;;;;;;1969.67;519.73;;;9.80;99.90;;;;;;5099318;28;20309;-51
2023/04/17 07:01:26;;;;;;;1225.57;205.67;;;9.70;99.90;;;;;;5111450;28;20238;-51
2023/04/17 07:03:54;;;;;;;1999.90;513.73;;;9.80;99.90;;;;;;5111954;28;20274;-50
2023/04/17 07:06:23;;;;;;;1999.90;608.63;;;10.00;99.90;;;;;;5111962;28;20211;-51
2023/04/17 07:08:51;;;;;;;1616.67;296.20;;;10.00;99.90;;;;;;5111878;28;20640;-50
2023/04/17 07:11:23;;;;;;;1999.90;466.23;;;10.10;99.90;;;;;;5104071;27;20234;-51
2023/04/17 07:13:51;;;;;;;1999.90;543.43;;;10.10;99.90;;;;;;5111616;28;20627;-50
2023/04/17 07:16:21;;;;;;;1527.77;306.03;;;10.20;99.90;;;;;;5110572;28;20307;-50
2023/04/17 07:18:50;;;;;;;1893.80;372.07;;;10.20;99.90;;;;;;5111777;28;20256;-52
2023/04/17 07:21:18;;;;;;;1999.90;825.47;;;10.20;99.90;;;;;;5111688;28;20936;-51
2023/04/17 07:23:46;;;;;;;1999.90;402.90;;;10.30;99.90;;;;;;5109153;28;20306;-51
2023/04/17 07:26:14;;;;;;;1999.90;776.17;;;10.30;99.90;;;;;;5095694;28;20204;-51
2023/04/17 07:28:44;;;;;;;1999.90;812.73;;;10.50;99.90;;;;;;5103231;28;20199;-52
2023/04/17 07:31:12;;;;;;;1999.90;828.83;;;10.50;99.90;;;;;;5111531;28;20207;-51
2023/04/17 07:33:40;;;;;;;1999.90;649.43;;;10.60;99.90;;;;;;5111377;28;20223;-51
2023/04/17 07:36:11;;;;;;;1999.90;483.50;;;10.60;99.90;;;;;;5111227;28;20290;-52
2023/04/17 07:38:40;;;;;;;1368.70;264.10;;;10.60;99.90;;;;;;5111271;28;20315;-52
2023/04/17 07:41:08;;;;;;;1999.90;588.73;;;10.60;99.90;;;;;;5111420;28;20210;-52
2023/04/17 07:43:36;;;;;;;1999.90;693.73;;;10.70;99.90;;;;;;5106486;28;20228;-52
2023/04/17 07:46:05;;;;;;;1999.90;365.13;;;10.60;99.90;;;;;;5089707;28;20658;-51
2023/04/17 07:48:33;;;;;;;1999.90;450.53;;;10.60;99.90;;;;;;5090879;28;20279;-51
2023/04/17 07:51:01;;;;;;;1999.90;452.43;;;10.60;99.90;;;;;;5090986;28;20645;-50
2023/04/17 07:53:29;;;;;;;1691.90;309.90;;;10.50;99.90;;;;;;5081190;28;20264;-49
2023/04/17 07:55:58;;;;;;;1999.90;399.13;;;10.50;99.90;;;;;;5077339;28;20205;-51
2023/04/17 07:58:26;;;;;;;1999.90;512.20;;;10.50;99.90;;;;;;5088332;28;20235;-51
2023/04/17 08:00:54;;;;;;;1999.90;408.50;;;10.40;99.90;;;;;;5088247;28;20265;-51
2023/04/17 08:03:24;;;;;;;1999.90;500.53;;;10.50;99.90;;;;;;5088570;28;20677;-51
2023/04/17 08:05:52;;;;;;;1999.90;504.93;;;10.40;99.90;;;;;;5090077;28;20212;-51
2023/04/17 08:08:22;;;;;;;1999.90;600.23;;;10.30;99.90;;;;;;5089647;28;20203;-51
2023/04/17 08:10:51;;;;;;;848.17;198.17;;;10.30;99.90;;;;;;5083057;28;20280;-51
2023/04/17 08:13:19;;;;;;;1446.70;267.63;;;10.30;99.90;;;;;;5088539;28;20292;-51
2023/04/17 08:15:47;;;;;;;1999.90;414.30;;;10.30;99.90;;;;;;5078801;28;20705;-52
2023/04/17 08:18:15;;;;;;;1999.90;486.30;;;10.20;99.90;;;;;;5085171;28;20671;-51
2023/04/17 08:20:44;;;;;;;1565.27;258.57;;;10.10;99.90;;;;;;5087360;28;20212;-51
2023/04/17 08:23:12;;;;;;;1159.37;258.43;;;10.10;99.90;;;;;;5090176;28;20268;-51
2023/04/17 08:25:40;;;;;;;1999.90;444.90;;;10.20;99.90;;;;;;5075493;28;20253;-49
2023/04/17 08:28:08;;;;;;;1827.97;373.03;;;10.20;99.90;;;;;;5090200;28;20236;-48
2023/04/17 08:30:36;;;;;;;1999.90;424.57;;;10.30;99.90;;;;;;5090116;28;20299;-49
2023/04/17 08:33:04;;;;;;;1999.90;759.07;;;10.50;99.90;;;;;;5085019;28;20229;-48
2023/04/17 08:35:32;;;;;;;1468.63;341.40;;;10.80;99.90;;;;;;5081451;28;20242;-49
2023/04/17 08:38:02;;;;;;;1944.43;445.73;;;10.80;99.90;;;;;;5089654;28;20224;-51
2023/04/17 08:40:30;;;;;;;1169.53;265.73;;;11.00;99.90;;;;;;5089696;28;20204;-51
2023/04/17 08:43:01;;;;;;;830.20;212.83;;;11.00;99.90;;;;;;5089443;28;20224;-51
2023/04/17 08:45:29;;;;;;;1999.90;547.93;;;11.20;99.90;;;;;;5089913;28;20304;-51
2023/04/17 08:47:57;;;;;;;1999.90;633.00;;;11.40;99.90;;;;;;5089669;28;20688;-51
2023/04/17 08:50:25;;;;;;;1544.27;233.43;;;11.50;99.90;;;;;;5082090;28;20209;-51
2023/04/17 08:52:53;;;;;;;1999.90;684.00;;;11.60;99.90;;;;;;5083048;28;20320;-52
2023/04/17 08:55:27;;;;;;;1999.90;619.50;;;11.70;99.90;;;;;;5076401;28;20213;-51
2023/04/17 08:57:57;;;;;;;1999.90;574.90;;;11.70;99.90;;;;;;5082510;28;20270;-51
2023/04/17 09:00:27;;;;;;;1999.90;651.40;;;11.90;99.90;;;;;;5089314;28;20208;-52
2023/04/17 09:02:56;;;;;;;1999.90;709.67;;;11.90;99.90;;;;;;5089467;28;20236;-52
2023/04/17 09:05:29;;;;;;;1999.90;654.57;;;11.90;99.90;;;;;;5089258;28;20212;-51
2023/04/17 09:08:09;;;;;;;1999.90;577.23;;;11.90;99.90;;;;;;5079284;28;20208;-51
2023/04/17 09:10:39;;;;;;;1999.90;827.53;;;11.90;99.90;;;;;;5077217;28;20204;-51
2023/04/17 09:13:08;;;;;;;1999.90;617.33;;;11.70;99.90;;;;;;5089197;28;20232;-52
2023/04/17 09:15:36;;;;;;;1999.90;745.93;;;11.90;99.90;;;;;;5088351;28;20215;-51
2023/04/17 09:18:05;;;;;;;1999.90;668.63;;;11.90;99.90;;;;;;5089038;28;20895;-51
2023/04/17 09:20:47;;;;;;;1999.90;856.27;;;12.20;99.90;;;;;;5088661;28;20299;-51
2023/04/17 09:23:15;;;;;;;1999.90;512.87;;;12.30;99.90;;;;;;5088897;28;20227;-52
2023/04/17 09:25:45;;;;;;;1999.90;649.27;;;12.30;99.90;;;;;;5074323;28;20266;-51
2023/04/17 09:28:15;;;;;;;1999.90;999.90;;;12.30;99.90;;;;;;5088392;28;20200;-50
2023/04/17 09:30:43;;;;;;;1999.90;930.23;;;12.50;99.90;;;;;;5088873;28;20259;-51
2023/04/17 09:33:11;;;;;;;1999.90;739.73;;;12.40;99.90;;;;;;5088936;28;20798;-52
2023/04/17 09:35:40;;;;;;;1999.90;852.37;;;12.50;99.90;;;;;;5088607;28;20219;-50
2023/04/17 09:38:08;;;;;;;1999.90;731.73;;;12.70;99.90;;;;;;5087511;28;20232;-51
2023/04/17 09:40:41;;;;;;;1999.90;601.33;;;12.70;99.90;;;;;;5088504;28;20300;-50
2023/04/17 09:43:10;;;;;;;1999.90;738.07;;;12.90;99.90;;;;;;5089070;28;20231;-51
2023/04/17 09:45:43;;;;;;;1999.90;711.80;;;13.00;99.90;;;;;;5088671;28;20613;-52
2023/04/17 09:48:12;;;;;;;1999.90;723.90;;;13.30;99.90;;;;;;5088781;28;20208;-50
2023/04/17 09:50:40;;;;;;;1999.90;946.50;;;13.40;99.90;;;;;;5088622;28;20242;-50
2023/04/17 09:53:08;;;;;;;1999.90;986.90;;;13.30;99.90;;;;;;5088062;28;20264;-52
2023/04/17 09:55:38;;;;;;;1999.90;999.90;;;13.40;99.90;;;;;;5088429;28;20443;-51
2023/04/17 09:58:07;;;;;;;1999.90;999.90;;;13.50;99.90;;;;;;5088441;28;20303;-50
2023/04/17 10:00:37;;;;;;;1999.90;999.90;;;13.30;99.90;;;;;;5088749;28;20256;-51
2023/04/17 10:03:08;;;;;;;1999.90;968.80;;;13.20;99.90;;;;;;5088094;28;20701;-51
2023/04/17 10:05:36;;;;;;;1999.90;869.87;;;13.40;99.90;;;;;;5088666;28;20226;-52
2023/04/17 10:08:05;;;;;;;1999.90;999.90;;;13.40;99.90;;;;;;5088713;28;20642;-51
2023/04/17 10:10:35;;;;;;;1999.90;999.90;;;13.40;99.90;;;;;;5088924;28;20208;-51
2023/04/17 10:13:06;;;;;;;1999.90;999.90;;;13.40;99.90;;;;;;5088470;28;20267;-51
2023/04/17 10:15:36;;;;;;;1999.90;999.90;;;13.30;99.90;;;;;;5075854;28;21020;-51
2023/04/17 10:18:21;;;;;;;1999.90;999.90;;;13.40;99.90;;;;;;5084346;28;20299;-52
2023/04/17 10:20:51;;;;;;;1999.90;999.90;;;13.30;99.90;;;;;;5077181;28;20766;-51
2023/04/17 10:23:31;;;;;;;1999.90;999.90;;;13.20;99.90;;;;;;5088048;28;20583;-52
2023/04/17 10:26:42;;;;;;;1999.90;999.90;;;13.20;99.90;;;;;;5074362;28;20315;-52
2023/04/17 10:29:11;;;;;;;1999.90;999.90;;;13.20;99.90;;;;;;5088434;28;20204;-52
2023/04/17 10:32:24;;;;;;;1999.90;999.90;;;13.30;99.90;;;;;;5088648;28;20213;-52
2023/04/17 10:34:55;;;;;;;1999.90;999.90;;;13.40;99.90;;;;;;5076186;28;20282;-51
2023/04/17 10:38:03;;;;;;;1999.90;999.90;;;13.30;99.90;;;;;;5088379;28;20240;-51
2023/04/17 10:40:32;;;;;;;1999.90;999.90;;;13.40;99.90;;;;;;5088284;28;20285;-52
2023/04/17 10:43:06;;;;;;;1999.90;999.90;;;13.30;99.90;;;;;;5087985;28;20730;-52
2023/04/17 10:45:58;;;;;;;1999.90;999.90;;;13.30;99.90;;;;;;5088208;28;20678;-51
2023/04/17 10:48:28;;;;;;;1999.90;999.90;;;13.40;99.90;;;;;;5076336;28;20243;-52
2023/04/17 10:50:57;;;;;;;1999.90;999.90;;;13.60;99.90;;;;;;5091294;28;20731;-52
2023/04/17 10:53:42;;;;;;;1999.90;999.90;;;13.70;99.90;;;;;;5091747;28;20228;-52
2023/04/17 10:56:12;;;;;;;1999.90;999.90;;;13.70;99.90;;;;;;5091720;28;20208;-51
2023/04/17 10:58:56;;;;;;;1999.90;999.90;;;13.80;99.90;;;;;;5091843;28;20235;-51
2023/04/17 11:01:26;;;;;;;1999.90;999.90;;;13.80;99.90;;;;;;5091397;28;20751;-51
2023/04/17 11:03:58;;;;;;;1999.90;999.90;;;13.80;99.90;;;;;;5089314;28;20234;-52
2023/04/17 11:06:28;;;;;;;1999.90;999.90;;;14.00;99.90;;;;;;5084948;28;20235;-51
2023/04/17 11:08:57;;;;;;;1999.90;999.90;;;13.90;99.90;;;;;;5097037;28;20228;-51
2023/04/17 11:11:25;;;;;;;1999.90;999.90;;;14.10;99.90;;;;;;5092909;28;20209;-51
2023/04/17 11:14:13;;;;;;;1999.90;999.90;;;14.20;99.90;;;;;;5085353;28;20224;-51
2023/04/17 11:16:43;;;;;;;1999.90;999.90;;;14.30;99.90;;;;;;5099632;28;20211;-51
2023/04/17 11:19:12;;;;;;;1999.90;999.90;;;14.20;99.90;;;;;;5086962;28;20228;-51
2023/04/17 11:21:45;;;;;;;1999.90;999.90;;;14.10;99.90;;;;;;5097103;28;20207;-51
2023/04/17 11:24:13;;;;;;;1999.90;999.90;;;14.10;99.90;;;;;;5110664;28;20623;-51
2023/04/17 11:26:45;;;;;;;1999.90;999.90;;;14.10;99.90;;;;;;5110942;28;20214;-51
2023/04/17 11:29:16;;;;;;;1999.90;999.90;;;14.00;99.90;;;;;;5111245;28;20834;-52
2023/04/17 11:31:45;;;;;;;1999.90;999.90;;;14.00;99.90;;;;;;5111375;28;20253;-51
2023/04/17 11:34:15;;;;;;;1999.90;999.90;;;13.90;99.90;;;;;;5105405;28;20919;-51
2023/04/17 11:36:50;;;;;;;1999.90;999.90;;;14.00;99.90;;;;;;5109501;28;20234;-51
2023/04/17 11:39:19;;;;;;;1999.90;999.90;;;13.90;99.90;;;;;;5100275;28;20224;-51
2023/04/17 11:41:47;;;;;;;1999.90;990.80;;;13.80;99.90;;;;;;5110851;28;21018;-51
2023/04/17 11:44:17;;;;;;;1999.90;999.90;;;13.70;99.90;;;;;;5106172;28;20224;-51
2023/04/17 11:46:49;;;;;;;1999.90;999.90;;;13.60;99.90;;;;;;5105312;28;20306;-51
2023/04/17 11:49:23;;;;;;;1999.90;999.90;;;13.60;99.90;;;;;;5109066;28;20286;-51
2023/04/17 11:51:52;;;;;;;1999.90;999.90;;;13.70;99.90;;;;;;5104713;28;20299;-51
2023/04/17 11:54:25;;;;;;;1999.90;999.90;;;14.00;99.90;;;;;;5111194;28;20307;-51
2023/04/17 11:57:00;;;;;;;1999.90;999.90;;;14.10;99.90;;;;;;5110901;28;20253;-51
2023/04/17 11:59:33;;;;;;;1999.90;999.90;;;14.40;99.90;;;;;;5106975;28;20245;-51
2023/04/17 12:02:02;;;;;;;1999.90;999.90;;;14.50;99.90;;;;;;5093824;28;20197;-52
2023/04/17 12:04:32;;;;;;;1999.90;999.90;;;14.30;99.90;;;;;;5082710;28;20277;-51
2023/04/17 12:07:03;;;;;;;1999.90;999.90;;;14.20;99.90;;;;;;5099754;28;20215;-52
2023/04/17 12:09:31;;;;;;;1999.90;999.90;;;14.20;99.90;;;;;;5110523;28;20199;-51
2023/04/17 12:12:00;;;;;;;1999.90;999.90;;;14.40;99.90;;;;;;5104875;28;20210;-51
2023/04/17 12:14:28;;;;;;;1999.90;999.90;;;14.40;99.90;;;;;;5110098;28;20219;-52
2023/04/17 12:16:56;;;;;;;1999.90;999.90;;;14.40;99.90;;;;;;5109769;28;20642;-51
2023/04/17 12:19:26;;;;;;;1999.90;999.90;;;14.40;99.90;;;;;;5110356;28;20265;-51